Time;durP1;ratioP1;P1;durP2;ratioP2;P2;SDS_P1;SDS_P2;PMS_P1;PMS_P2;Temp;Humidity;BMP_temperature;BMP_pressure;BME280_temperature;BME280_humidity;BME280_pressure;Samples;Min_cycle;Max_cycle;Signal;HPM_P1;HPM_P2
2023/05/18 00:01:58;;;;;;;3.60;2.03;;;;;;;;;;5051266;28;20523;-59
2023/05/18 00:04:25;;;;;;;5.70;1.53;;;;;;;;;;5053972;28;20487;-59
2023/05/18 00:06:55;;;;;;;5.10;1.50;;;;;;;;;;5053846;28;20494;-56
2023/05/18 00:09:24;;;;;;;4.93;2.17;;;;;;;;;;5034535;28;20465;-59
2023/05/18 00:11:51;;;;;;;6.33;1.97;;;;;;;;;;5030653;28;20530;-59
2023/05/18 00:14:19;;;;;;;3.87;1.60;;;;;;;;;;5029952;28;20473;-58
2023/05/18 00:16:46;;;;;;;9.83;2.10;;;;;;;;;;5029688;28;21104;-58
2023/05/18 00:19:14;;;;;;;2.73;1.57;;;;;;;;;;5030046;28;20496;-59
2023/05/18 00:21:41;;;;;;;5.60;1.43;;;;;;;;;;5029192;28;20459;-60
2023/05/18 00:24:09;;;;;;;5.33;1.57;;;;;;;;;;5029939;28;20786;-60
2023/05/18 00:26:38;;;;;;;2.80;1.60;;;10.90;99.90;;;;;;5029607;28;20469;-58
2023/05/18 00:29:05;;;;;;;9.03;1.70;;;;;;;;;;5030554;28;20464;-61
2023/05/18 00:31:35;;;;;;;4.07;1.57;;;10.70;99.90;;;;;;5034015;28;20461;-59
2023/05/18 00:34:03;;;;;;;3.30;1.77;;;;;;;;;;5034761;28;20414;-58
2023/05/18 00:36:30;;;;;;;9.70;2.80;;;;;;;;;;5034842;28;20445;-60
2023/05/18 00:39:00;;;;;;;9.10;1.63;;;;;;;;;;5047362;28;20452;-58
2023/05/18 00:41:28;;;;;;;3.60;1.60;;;;;;;;;;5049527;28;20484;-58
2023/05/18 00:43:57;;;;;;;2.80;1.27;;;10.50;99.90;;;;;;5050657;28;20475;-55
2023/05/18 00:46:25;;;;;;;3.00;1.43;;;10.60;99.90;;;;;;5051069;28;20451;-55
2023/05/18 00:48:52;;;;;;;4.10;1.20;;;;;;;;;;5054868;28;20455;-57
2023/05/18 00:51:22;;;;;;;2.27;1.57;;;10.60;99.90;;;;;;5054813;28;20452;-59
2023/05/18 00:53:49;;;;;;;4.90;1.33;;;10.60;99.90;;;;;;5049322;28;20468;-57
2023/05/18 00:56:17;;;;;;;2.80;1.80;;;;;;;;;;5048778;28;20483;-59
2023/05/18 00:58:44;;;;;;;6.40;1.80;;;;;;;;;;5048641;28;20472;-58
2023/05/18 01:01:16;;;;;;;6.67;1.90;;;;;;;;;;5048969;28;20503;-58
2023/05/18 01:03:43;;;;;;;6.73;1.87;;;;;;;;;;5048656;28;20440;-58
2023/05/18 01:06:11;;;;;;;5.23;1.63;;;;;;;;;;5048371;28;20571;-60
2023/05/18 01:08:40;;;;;;;4.80;1.20;;;;;;;;;;5048771;28;20475;-57
2023/05/18 01:11:19;;;;;;;2.47;1.37;;;10.50;99.90;;;;;;5049283;28;20460;-58
2023/05/18 01:13:54;;;;;;;10.90;1.47;;;10.50;99.90;;;;;;5049031;28;20459;-59
2023/05/18 01:16:26;;;;;;;7.63;1.37;;;;;;;;;;5048838;28;20423;-62
2023/05/18 01:19:04;;;;;;;3.53;1.40;;;10.10;99.90;;;;;;5047943;28;20451;-59
2023/05/18 01:21:45;;;;;;;5.90;1.37;;;10.40;99.90;;;;;;5049929;28;20494;-60
2023/05/18 01:24:25;;;;;;;2.47;1.20;;;10.20;99.90;;;;;;5048408;28;20488;-58
2023/05/18 01:26:56;;;;;;;6.83;1.20;;;10.10;99.90;;;;;;5048856;28;20443;-57
2023/05/18 01:29:29;;;;;;;2.80;1.17;;;10.30;99.90;;;;;;5049151;28;20475;-59
2023/05/18 01:31:56;;;;;;;3.33;1.50;;;;;;;;;;5052017;28;20425;-60
2023/05/18 01:34:23;;;;;;;4.33;1.40;;;;;;;;;;5049907;28;20507;-60
2023/05/18 01:36:50;;;;;;;4.73;1.57;;;;;;;;;;5049737;28;20444;-59
2023/05/18 01:39:17;;;;;;;4.27;1.53;;;;;;;;;;5050958;28;20555;-59
2023/05/18 01:41:51;;;;;;;3.07;1.10;;;10.30;99.90;;;;;;5049998;28;20905;-60
2023/05/18 01:44:24;;;;;;;3.90;1.60;;;10.50;99.90;;;;;;5049349;28;20440;-52
2023/05/18 01:46:57;;;;;;;3.23;2.50;;;10.50;99.90;;;;;;5049483;28;20471;-60
2023/05/18 01:49:30;;;;;;;5.23;1.57;;;10.40;99.90;;;;;;5049415;28;20461;-59
2023/05/18 01:52:01;;;;;;;2.07;1.30;;;10.40;99.90;;;;;;5049317;28;20493;-60
2023/05/18 01:54:30;;;;;;;10.77;2.30;;;10.50;99.90;;;;;;5048941;28;20451;-60
2023/05/18 01:56:59;;;;;;;4.53;1.33;;;10.30;99.90;;;;;;5049462;28;20495;-58
2023/05/18 01:59:28;;;;;;;3.73;1.80;;;10.50;99.90;;;;;;5032538;28;20492;-59
2023/05/18 02:01:59;;;;;;;4.50;1.20;;;10.40;99.90;;;;;;5033477;28;20472;-60
2023/05/18 02:04:26;;;;;;;3.47;1.80;;;;;;;;;;5031820;28;20471;-60
2023/05/18 02:06:57;;;;;;;2.10;1.17;;;;;;;;;;5035567;28;20436;-57
2023/05/18 02:09:24;;;;;;;6.63;1.50;;;;;;;;;;5052339;28;20502;-58
2023/05/18 02:11:51;;;;;;;3.13;1.83;;;;;;;;;;5052712;28;20436;-55
2023/05/18 02:14:18;;;;;;;3.27;1.73;;;;;;;;;;5052725;28;20563;-59
2023/05/18 02:16:51;;;;;;;6.23;1.33;;;10.50;99.90;;;;;;5053428;28;20427;-58
2023/05/18 02:19:19;;;;;;;10.90;2.20;;;;;;;;;;5053967;28;20420;-54
2023/05/18 02:21:46;;;;;;;7.87;1.60;;;;;;;;;;5053543;28;20448;-58
2023/05/18 02:24:13;;;;;;;6.20;1.50;;;;;;;;;;5053545;28;20439;-60
2023/05/18 02:26:40;;;;;;;3.83;1.20;;;;;;;;;;5054044;28;20503;-59
2023/05/18 02:29:10;;;;;;;4.40;2.10;;;;;;;;;;5051928;28;20466;-59
2023/05/18 02:31:37;;;;;;;8.70;1.93;;;;;;;;;;5053280;28;20460;-59
2023/05/18 02:34:07;;;;;;;5.73;1.50;;;10.10;99.90;;;;;;5053956;28;20479;-59
2023/05/18 02:36:38;;;;;;;11.97;1.67;;;;;;;;;;5053006;28;20470;-59
2023/05/18 02:39:06;;;;;;;5.40;1.67;;;;;;;;;;5053193;28;20444;-60
2023/05/18 02:41:33;;;;;;;4.20;1.23;;;;;;;;;;5053267;28;20448;-57
2023/05/18 02:44:01;;;;;;;13.23;1.27;;;;;;;;;;5053461;28;20522;-59
2023/05/18 02:46:29;;;;;;;1.50;1.30;;;;;;;;;;5054003;28;20495;-60
2023/05/18 02:48:58;;;;;;;4.40;1.50;;;;;;;;;;5052749;28;20482;-58
2023/05/18 02:51:26;;;;;;;7.17;2.00;;;10.20;99.90;;;;;;5053174;28;20452;-62
2023/05/18 02:53:53;;;;;;;2.90;1.10;;;;;;;;;;5052638;28;20448;-60
2023/05/18 02:56:21;;;;;;;2.97;1.73;;;;;;;;;;5052687;28;20452;-56
2023/05/18 02:58:48;;;;;;;7.50;1.90;;;;;;;;;;5052717;28;20948;-57
2023/05/18 03:01:15;;;;;;;3.10;1.13;;;;;;;;;;5052749;28;20474;-49
2023/05/18 03:03:42;;;;;;;6.37;1.13;;;;;;;;;;5052926;28;20472;-58
2023/05/18 03:06:09;;;;;;;3.40;1.50;;;;;;;;;;5052305;28;20506;-57
2023/05/18 03:08:41;;;;;;;4.93;1.40;;;9.90;99.90;;;;;;5053494;28;20444;-60
2023/05/18 03:11:08;;;;;;;3.37;1.60;;;;;;;;;;5052177;28;20492;-62
2023/05/18 03:13:35;;;;;;;10.60;2.00;;;;;;;;;;5053572;28;20452;-61
2023/05/18 03:16:02;;;;;;;2.97;1.73;;;;;;;;;;5053019;28;20455;-60
2023/05/18 03:18:32;;;;;;;8.70;2.90;;;9.80;99.90;;;;;;5053433;28;20467;-60
2023/05/18 03:21:00;;;;;;;5.00;1.37;;;;;;;;;;5053423;28;20448;-60
2023/05/18 03:23:28;;;;;;;2.03;1.23;;;;;;;;;;5053519;28;20503;-59
2023/05/18 03:26:01;;;;;;;3.73;1.13;;;9.80;99.90;;;;;;5053267;28;20475;-60
2023/05/18 03:28:30;;;;;;;3.50;1.57;;;9.90;99.90;;;;;;5053302;28;20477;-60
2023/05/18 03:30:59;;;;;;;8.00;1.47;;;;;;;;;;5053544;28;20423;-60
2023/05/18 03:33:27;;;;;;;4.50;1.50;;;;;;;;;;5052990;28;20467;-59
2023/05/18 03:35:54;;;;;;;6.20;1.77;;;;;;;;;;5053158;28;20440;-56
2023/05/18 03:38:22;;;;;;;4.27;1.30;;;;;;;;;;5052960;28;20448;-59
2023/05/18 03:40:49;;;;;;;1.53;1.00;;;;;;;;;;5052913;28;20475;-58
2023/05/18 03:43:17;;;;;;;11.63;1.93;;;9.50;99.90;;;;;;5052657;28;20452;-59
2023/05/18 03:45:46;;;;;;;9.60;2.03;;;9.80;99.90;;;;;;5052368;28;20492;-56
2023/05/18 03:48:13;;;;;;;11.87;1.93;;;;;;;;;;5052535;28;20504;-56
2023/05/18 03:50:40;;;;;;;5.30;1.33;;;;;;;;;;5052604;28;20495;-60
2023/05/18 03:53:08;;;;;;;2.83;1.30;;;;;;;;;;5054549;28;20456;-58
2023/05/18 03:55:35;;;;;;;4.27;2.00;;;;;;;;;;5055437;28;20456;-58
2023/05/18 03:58:02;;;;;;;6.13;1.80;;;;;;;;;;5052772;28;20447;-55
2023/05/18 04:00:31;;;;;;;1.60;0.90;;;9.60;99.90;;;;;;5054953;28;20563;-59
2023/05/18 04:02:59;;;;;;;3.83;1.40;;;;;;;;;;5055273;28;20532;-59
2023/05/18 04:05:27;;;;;;;3.90;1.10;;;;;;;;;;5054466;28;21002;-59
2023/05/18 04:07:56;;;;;;;5.77;1.17;;;;;;;;;;5054363;28;20460;-58
2023/05/18 04:10:25;;;;;;;7.17;1.83;;;9.80;99.90;;;;;;5053922;28;20441;-56
2023/05/18 04:12:54;;;;;;;2.70;1.33;;;9.40;99.90;;;;;;5054017;28;20436;-58
2023/05/18 04:15:21;;;;;;;6.73;2.03;;;;;;;;;;5054586;28;20464;-58
2023/05/18 04:17:52;;;;;;;5.33;1.90;;;9.70;99.90;;;;;;5051992;28;20460;-58
2023/05/18 04:20:20;;;;;;;5.80;1.37;;;;;;;;;;5053637;28;20460;-54
2023/05/18 04:22:47;;;;;;;1.60;1.10;;;;;;;;;;5053118;28;20428;-57
2023/05/18 04:25:15;;;;;;;7.80;1.60;;;;;;;;;;5052414;28;20518;-56
2023/05/18 04:27:44;;;;;;;3.10;1.80;;;;;;;;;;5049381;28;20882;-59
2023/05/18 04:30:11;;;;;;;1.60;1.13;;;;;;;;;;5042733;28;20458;-59
2023/05/18 04:32:41;;;;;;;5.90;1.30;;;;;;;;;;5042658;28;20530;-59
2023/05/18 04:35:11;;;;;;;5.70;1.60;;;10.20;99.90;;;;;;5042990;28;20456;-60
2023/05/18 04:37:40;;;;;;;4.87;1.90;;;;;;;;;;5051051;28;20459;-59
2023/05/18 04:40:11;;;;;;;5.30;1.43;;;10.00;99.90;;;;;;5032123;28;20445;-60
2023/05/18 04:42:44;;;;;;;4.10;1.40;;;;;;;;;;5033724;28;20480;-57
2023/05/18 04:45:15;;;;;;;3.23;1.20;;;10.10;99.90;;;;;;5031987;28;20472;-59
2023/05/18 04:47:45;;;;;;;2.13;1.27;;;;;;;;;;5032576;28;20491;-59
2023/05/18 04:50:14;;;;;;;3.23;1.57;;;9.80;99.90;;;;;;5032251;28;20469;-61
2023/05/18 04:52:47;;;;;;;4.50;1.40;;;;;;;;;;5032318;28;20445;-60
2023/05/18 04:55:15;;;;;;;9.23;1.03;;;10.10;99.90;;;;;;5031949;28;20477;-60
2023/05/18 04:57:43;;;;;;;5.93;1.60;;;;;;;;;;5034289;28;20460;-56
2023/05/18 05:00:11;;;;;;;5.13;1.87;;;;;;;;;;5031068;28;20565;-59
2023/05/18 05:02:39;;;;;;;5.13;1.67;;;;;;;;;;5032452;28;20447;-59
2023/05/18 05:05:07;;;;;;;3.90;1.30;;;;;;;;;;5031349;28;20445;-58
2023/05/18 05:07:35;;;;;;;5.40;1.50;;;10.30;99.90;;;;;;5035452;28;20468;-60
2023/05/18 05:10:02;;;;;;;3.43;1.40;;;;;;;;;;5051669;28;20436;-56
2023/05/18 05:12:31;;;;;;;6.80;1.27;;;10.20;99.90;;;;;;5052236;28;20459;-57
2023/05/18 05:14:58;;;;;;;4.23;1.30;;;;;;;;;;5051452;28;20773;-60
2023/05/18 05:17:25;;;;;;;5.37;2.73;;;;;;;;;;5050645;28;20459;-61
2023/05/18 05:19:52;;;;;;;12.67;2.17;;;;;;;;;;5050647;28;20445;-59
2023/05/18 05:22:20;;;;;;;5.37;1.93;;;;;;;;;;5049196;28;20452;-61
2023/05/18 05:24:48;;;;;;;3.73;1.77;;;;;;;;;;5050826;28;20433;-61
2023/05/18 05:27:15;;;;;;;2.43;1.40;;;;;;;;;;5049813;28;20507;-57
2023/05/18 05:29:43;;;;;;;3.10;1.73;;;;;;;;;;5052773;28;20460;-53
2023/05/18 05:32:11;;;;;;;4.80;2.00;;;;;;;;;;5049838;28;20453;-61
2023/05/18 05:34:38;;;;;;;8.97;1.80;;;;;;;;;;5052408;28;20476;-60
2023/05/18 05:37:05;;;;;;;2.57;1.30;;;;;;;;;;5053368;28;20455;-57
2023/05/18 05:39:33;;;;;;;4.27;1.93;;;;;;;;;;5053241;28;20487;-60
2023/05/18 05:42:01;;;;;;;9.00;1.73;;;;;;;;;;5053782;28;20436;-60
2023/05/18 05:44:28;;;;;;;5.37;1.93;;;;;;;;;;5053259;28;20487;-60
2023/05/18 05:46:55;;;;;;;11.40;1.57;;;;;;;;;;5053251;28;20511;-60
2023/05/18 05:49:23;;;;;;;3.17;1.10;;;;;;;;;;5053349;28;20447;-59
2023/05/18 05:51:52;;;;;;;7.30;1.63;;;10.90;99.90;;;;;;5052666;28;20464;-59
2023/05/18 05:54:19;;;;;;;10.63;3.57;;;;;;;;;;5052024;28;20448;-59
2023/05/18 05:56:46;;;;;;;3.30;1.73;;;;;;;;;;5052654;28;20537;-55
2023/05/18 05:59:15;;;;;;;7.43;1.90;;;;;;;;;;5057816;28;20432;-59
2023/05/18 06:01:42;;;;;;;8.93;1.67;;;;;;;;;;5052435;28;20472;-60
2023/05/18 06:04:11;;;;;;;11.03;3.00;;;;;;;;;;5052887;28;20468;-62
2023/05/18 06:06:38;;;;;;;5.90;1.83;;;;;;;;;;5052660;28;20487;-59
2023/05/18 06:09:05;;;;;;;1.70;1.20;;;;;;;;;;5052189;28;20651;-60
2023/05/18 06:11:33;;;;;;;7.13;1.60;;;;;;;;;;5052501;28;20456;-61
2023/05/18 06:14:00;;;;;;;4.60;1.50;;;;;;;;;;5057734;28;20455;-60
2023/05/18 06:16:28;;;;;;;3.53;1.43;;;;;;;;;;5055553;28;20444;-61
2023/05/18 06:18:55;;;;;;;11.53;1.90;;;;;;;;;;5051811;28;20499;-62
2023/05/18 06:21:23;;;;;;;2.50;1.13;;;;;;;;;;5050639;28;20944;-60
2023/05/18 06:23:54;;;;;;;3.20;1.57;;;;;;;;;;5051557;28;20471;-58
2023/05/18 06:26:21;;;;;;;5.87;1.87;;;;;;;;;;5050763;28;20464;-58
2023/05/18 06:28:49;;;;;;;4.93;1.50;;;;;;;;;;5050924;28;20963;-61
2023/05/18 06:31:17;;;;;;;3.20;1.40;;;;;;;;;;5048891;28;20428;-61
2023/05/18 06:33:46;;;;;;;6.27;1.93;;;;;;;;;;5042118;28;20448;-60
2023/05/18 06:36:13;;;;;;;16.17;2.37;;;;;;;;;;5042531;28;20471;-61
2023/05/18 06:38:40;;;;;;;2.83;2.30;;;;;;;;;;5042566;28;20484;-62
2023/05/18 06:41:07;;;;;;;2.57;1.73;;;;;;;;;;5041922;28;20527;-60
2023/05/18 06:43:34;;;;;;;6.37;1.40;;;;;;;;;;5041332;28;20480;-60
2023/05/18 06:46:01;;;;;;;4.97;2.10;;;;;;;;;;5041161;28;20567;-62
2023/05/18 06:48:29;;;;;;;3.90;1.70;;;12.20;99.90;;;;;;5041230;28;20443;-60
2023/05/18 06:50:57;;;;;;;5.47;3.40;;;12.30;99.90;;;;;;5041562;28;20458;-61
2023/05/18 06:53:25;;;;;;;6.03;1.40;;;;;;;;;;5059163;28;20462;-61
2023/05/18 06:55:53;;;;;;;2.07;1.00;;;12.10;99.90;;;;;;5061064;28;20447;-60
2023/05/18 06:58:21;;;;;;;2.03;1.33;;;;;;;;;;5060515;28;20483;-57
2023/05/18 07:00:48;;;;;;;2.77;1.40;;;;;;;;;;5060527;28;20507;-61
2023/05/18 07:03:18;;;;;;;5.57;3.30;;;;;;;;;;5060300;28;20461;-60
2023/05/18 07:05:45;;;;;;;7.43;2.10;;;;;;;;;;5060105;28;20515;-61
2023/05/18 07:08:13;;;;;;;2.33;1.10;;;12.70;99.90;;;;;;5051570;28;20797;-60
2023/05/18 07:10:40;;;;;;;8.03;1.57;;;;;;;;;;5048710;28;20528;-54
2023/05/18 07:13:08;;;;;;;5.37;1.60;;;;;;;;;;5032467;28;20453;-60
2023/05/18 07:15:35;;;;;;;2.50;1.40;;;;;;;;;;5036070;28;20465;-60
2023/05/18 07:18:02;;;;;;;4.03;1.63;;;;;;;;;;5036122;28;20449;-60
2023/05/18 07:20:31;;;;;;;2.60;1.43;;;19.80;99.90;;;;;;5038257;28;20450;-61
2023/05/18 07:22:58;;;;;;;5.33;1.90;;;;;;;;;;5037057;28;20527;-61
2023/05/18 07:25:27;;;;;;;1.63;1.30;;;22.60;88.20;;;;;;5038060;28;20440;-61
2023/05/18 07:27:54;;;;;;;7.77;1.67;;;;;;;;;;5054540;28;20975;-62
2023/05/18 07:30:21;;;;;;;3.17;1.70;;;;;;;;;;5055749;28;20475;-58
2023/05/18 07:32:50;;;;;;;3.50;1.60;;;;;;;;;;5055768;28;20455;-61
2023/05/18 07:35:18;;;;;;;12.50;1.50;;;;;;;;;;5056246;28;20547;-61
2023/05/18 07:37:45;;;;;;;3.23;1.80;;;;;;;;;;5036337;28;20930;-61
2023/05/18 07:40:13;;;;;;;5.13;1.40;;;;;;;;;;5034865;28;20472;-60
2023/05/18 07:42:41;;;;;;;3.47;1.70;;;25.90;62.00;;;;;;5035162;28;20464;-60
2023/05/18 07:45:09;;;;;;;4.10;1.60;;;26.10;59.70;;;;;;5034323;28;20913;-61
2023/05/18 07:47:36;;;;;;;2.93;1.90;;;;;;;;;;5035449;28;20893;-62
2023/05/18 07:50:04;;;;;;;13.00;2.73;;;;;;;;;;5035432;28;20542;-60
2023/05/18 07:52:31;;;;;;;5.97;2.00;;;;;;;;;;5035053;28;20492;-60
2023/05/18 07:54:58;;;;;;;5.17;1.60;;;;;;;;;;5030489;28;20495;-60
2023/05/18 07:57:25;;;;;;;4.40;1.83;;;;;;;;;;5033565;28;20541;-61
2023/05/18 07:59:56;;;;;;;4.10;1.57;;;27.70;54.80;;;;;;5034483;28;20459;-61
2023/05/18 08:02:23;;;;;;;2.07;1.33;;;;;;;;;;5025614;28;20472;-60
2023/05/18 08:04:50;;;;;;;3.57;1.80;;;;;;;;;;5018811;28;20511;-61
2023/05/18 08:07:18;;;;;;;5.50;1.70;;;;;;;;;;5023904;28;20568;-59
2023/05/18 08:09:45;;;;;;;3.23;2.43;;;;;;;;;;5029906;28;20495;-61
2023/05/18 08:12:12;;;;;;;2.20;1.40;;;;;;;;;;5034267;28;20448;-60
2023/05/18 08:14:39;;;;;;;4.80;1.50;;;;;;;;;;5035177;28;20512;-61
2023/05/18 08:17:08;;;;;;;3.80;1.70;;;25.50;56.30;;;;;;5032181;28;20455;-62
2023/05/18 08:19:35;;;;;;;5.70;1.87;;;;;;;;;;5029839;28;20499;-61
2023/05/18 08:22:04;;;;;;;5.40;1.80;;;24.50;58.60;;;;;;5028751;28;20456;-61
2023/05/18 08:24:32;;;;;;;6.33;2.00;;;;;;;;;;5038162;28;20893;-63
2023/05/18 08:26:59;;;;;;;5.20;2.17;;;;;;;;;;5037197;28;21245;-62
2023/05/18 08:29:28;;;;;;;6.23;2.10;;;22.80;60.00;;;;;;5038030;28;20933;-61
2023/05/18 08:31:55;;;;;;;2.90;1.50;;;;;;;;;;5038231;28;20585;-62
2023/05/18 08:34:24;;;;;;;4.47;1.50;;;21.00;64.30;;;;;;5042231;28;20464;-58
2023/05/18 08:36:51;;;;;;;12.13;2.60;;;;;;;;;;5043792;28;20511;-61
2023/05/18 08:39:19;;;;;;;10.20;2.50;;;;;;;;;;5038091;28;20467;-58
2023/05/18 08:41:55;;;;;;;3.13;1.77;;;22.60;62.70;;;;;;5037895;28;20447;-59
2023/05/18 08:44:26;;;;;;;7.20;1.73;;;23.90;59.70;;;;;;5037654;28;20532;-63
2023/05/18 08:46:55;;;;;;;2.87;1.50;;;24.30;59.50;;;;;;5034651;28;20492;-61
2023/05/18 08:49:26;;;;;;;3.40;1.43;;;23.30;59.80;;;;;;5036371;28;20981;-61
2023/05/18 08:51:57;;;;;;;7.73;2.13;;;22.50;61.90;;;;;;5034609;28;20464;-60
2023/05/18 08:54:24;;;;;;;3.20;1.67;;;;;;;;;;5037368;28;20949;-60
2023/05/18 08:56:53;;;;;;;3.33;1.53;;;20.60;65.00;;;;;;5035112;28;20527;-63
2023/05/18 08:59:23;;;;;;;6.53;1.97;;;20.10;67.50;;;;;;5028871;28;20507;-62
2023/05/18 09:01:53;;;;;;;4.03;1.80;;;19.10;69.20;;;;;;5044377;28;20452;-61
2023/05/18 09:04:21;;;;;;;4.50;1.53;;;19.20;68.40;;;;;;5041400;28;20472;-62
2023/05/18 09:06:53;;;;;;;11.17;2.07;;;18.50;70.90;;;;;;5042266;28;20980;-63
2023/05/18 09:09:20;;;;;;;4.13;1.40;;;;;;;;;;5037947;28;20487;-62
2023/05/18 09:11:48;;;;;;;4.20;1.33;;;;;;;;;;5040039;28;20451;-60
2023/05/18 09:14:15;;;;;;;4.97;1.43;;;;;;;;;;5053927;28;20476;-61
2023/05/18 09:16:42;;;;;;;3.23;1.77;;;;;;;;;;5049412;28;20432;-61
2023/05/18 09:19:09;;;;;;;7.13;1.40;;;;;;;;;;5038149;28;20825;-62
2023/05/18 09:21:36;;;;;;;7.83;1.60;;;;;;;;;;5038983;28;20440;-61
2023/05/18 09:24:05;;;;;;;5.30;1.57;;;17.60;73.60;;;;;;5032078;28;20596;-61
2023/05/18 09:26:33;;;;;;;4.97;1.73;;;;;;;;;;5031642;28;20471;-61
2023/05/18 09:29:00;;;;;;;5.50;1.43;;;;;;;;;;5035419;28;21072;-60
2023/05/18 09:31:27;;;;;;;10.37;2.30;;;;;;;;;;5032451;28;21076;-60
2023/05/18 09:33:54;;;;;;;2.17;1.23;;;;;;;;;;5035077;28;20562;-60
2023/05/18 09:36:25;;;;;;;3.40;1.43;;;;;;;;;;5034478;28;20940;-60
2023/05/18 09:38:52;;;;;;;3.93;1.80;;;;;;;;;;5034872;28;20455;-62
2023/05/18 09:41:21;;;;;;;3.50;1.43;;;22.50;62.70;;;;;;5019120;28;20461;-60
2023/05/18 09:43:49;;;;;;;5.10;1.93;;;;;;;;;;5036490;28;20744;-60
2023/05/18 09:46:17;;;;;;;3.00;1.40;;;;;;;;;;5034879;28;20452;-61
2023/05/18 09:48:46;;;;;;;4.50;2.07;;;20.10;67.00;;;;;;5035262;28;20507;-60
2023/05/18 09:51:15;;;;;;;5.00;2.30;;;;;;;;;;5035638;28;20519;-60
2023/05/18 09:53:42;;;;;;;4.33;2.33;;;19.40;68.80;;;;;;5039390;28;20472;-60
2023/05/18 09:56:13;;;;;;;2.63;1.33;;;;;;;;;;5037358;28;20909;-61
2023/05/18 09:58:42;;;;;;;3.73;1.97;;;19.20;71.20;;;;;;5038225;28;20440;-61
2023/05/18 10:01:09;;;;;;;3.80;1.90;;;;;;;;;;5038269;28;20488;-63
2023/05/18 10:03:37;;;;;;;2.87;1.40;;;19.40;69.70;;;;;;5037813;28;20472;-60
2023/05/18 10:06:06;;;;;;;3.30;1.90;;;19.20;71.10;;;;;;5037736;28;20533;-60
2023/05/18 10:08:33;;;;;;;5.77;1.90;;;;;;;;;;5037773;28;21152;-61
2023/05/18 10:11:01;;;;;;;5.00;2.00;;;;;;;;;;5038058;28;20563;-61
2023/05/18 10:13:30;;;;;;;3.13;1.53;;;18.70;71.20;;;;;;5037780;28;20479;-62
2023/05/18 10:16:01;;;;;;;4.00;1.87;;;18.50;71.80;;;;;;5037685;28;20779;-60
2023/05/18 10:18:29;;;;;;;2.33;1.40;;;;;;;;;;5038132;28;20475;-62
2023/05/18 10:20:59;;;;;;;3.20;1.50;;;19.20;68.50;;;;;;5041807;28;20531;-60
2023/05/18 10:23:27;;;;;;;3.90;1.70;;;19.60;68.60;;;;;;5042542;28;20532;-61
2023/05/18 10:25:54;;;;;;;3.37;1.40;;;;;;;;;;5044209;28;20483;-62
2023/05/18 10:28:27;;;;;;;6.10;1.70;;;21.40;64.50;;;;;;5040847;28;20548;-61
2023/05/18 10:30:55;;;;;;;1.90;1.30;;;21.90;59.70;;;;;;5040643;28;20812;-61
2023/05/18 10:33:25;;;;;;;3.83;1.80;;;22.50;63.60;;;;;;5040209;28;20602;-61
2023/05/18 10:35:54;;;;;;;7.20;2.40;;;;;;;;;;5040611;28;20440;-61
2023/05/18 10:38:22;;;;;;;3.87;1.70;;;22.80;59.30;;;;;;5039826;28;20529;-62
2023/05/18 10:40:51;;;;;;;6.17;1.93;;;22.60;62.50;;;;;;5044162;28;20462;-62
2023/05/18 10:43:20;;;;;;;3.50;1.60;;;;;;;;;;5045192;28;20940;-61
2023/05/18 10:45:52;;;;;;;1.93;1.30;;;22.70;61.00;;;;;;5044303;28;20444;-60
2023/05/18 10:48:20;;;;;;;2.73;1.63;;;22.50;62.70;;;;;;5045663;28;20472;-60
2023/05/18 10:50:50;;;;;;;2.13;1.73;;;22.20;58.90;;;;;;5044918;28;20499;-61
2023/05/18 10:53:19;;;;;;;4.03;1.80;;;22.10;63.00;;;;;;5045744;28;20496;-61
2023/05/18 10:55:47;;;;;;;4.33;1.70;;;22.30;63.70;;;;;;5044588;28;20973;-60
2023/05/18 10:58:17;;;;;;;4.60;1.77;;;22.10;63.00;;;;;;5046039;28;20878;-63
2023/05/18 11:00:50;;;;;;;6.67;1.30;;;22.40;62.30;;;;;;5044834;28;20496;-60
2023/05/18 11:03:18;;;;;;;4.73;1.40;;;22.10;61.30;;;;;;5045273;28;20437;-61
2023/05/18 11:05:51;;;;;;;7.37;1.27;;;;;;;;;;5045497;28;20487;-59
2023/05/18 11:08:27;;;;;;;1.80;1.23;;;22.40;56.60;;;;;;5043775;28;20573;-60
2023/05/18 11:11:02;;;;;;;4.40;2.03;;;22.00;62.40;;;;;;5043443;28;20526;-62
2023/05/18 11:13:30;;;;;;;4.80;1.87;;;;;;;;;;5041303;28;20554;-62
2023/05/18 11:16:07;;;;;;;8.50;1.73;;;21.90;56.80;;;;;;5040739;28;20563;-61
2023/05/18 11:18:36;;;;;;;4.93;2.27;;;21.20;60.90;;;;;;5042138;28;20952;-60
2023/05/18 11:21:18;;;;;;;3.43;1.33;;;21.30;62.30;;;;;;5039278;28;20491;-61
2023/05/18 11:24:23;;;;;;;2.47;1.53;;;21.30;62.70;;;;;;5039182;28;20468;-61
2023/05/18 11:26:52;;;;;;;4.37;1.40;;;20.90;63.10;;;;;;5040062;28;20452;-61
2023/05/18 11:29:24;;;;;;;2.20;1.97;;;20.90;63.70;;;;;;5039392;28;20824;-61
2023/05/18 11:31:52;;;;;;;2.43;1.80;;;21.10;62.80;;;;;;5046505;28;20468;-60
2023/05/18 11:34:35;;;;;;;3.10;1.10;;;;;;;;;;5046587;28;20814;-60
2023/05/18 11:37:04;;;;;;;8.17;1.97;;;20.80;64.20;;;;;;5039739;28;20459;-61
2023/05/18 11:39:32;;;;;;;7.07;1.67;;;20.50;64.70;;;;;;5039980;28;20470;-60
2023/05/18 11:41:59;;;;;;;4.07;1.47;;;;;;;;;;5039709;28;20495;-60
2023/05/18 11:44:29;;;;;;;6.90;1.50;;;19.90;66.20;;;;;;5039787;28;20960;-59
2023/05/18 11:47:07;;;;;;;4.80;1.53;;;19.80;68.00;;;;;;5039767;28;20508;-60
2023/05/18 11:49:38;;;;;;;5.93;1.50;;;19.70;69.20;;;;;;5039919;28;20470;-61
2023/05/18 11:52:13;;;;;;;3.83;1.73;;;19.60;68.80;;;;;;5039733;28;20491;-60
2023/05/18 11:54:46;;;;;;;4.30;2.17;;;19.80;68.70;;;;;;5039905;28;20431;-60
2023/05/18 11:57:17;;;;;;;4.00;1.70;;;19.90;68.10;;;;;;5040140;28;20460;-61
2023/05/18 11:59:45;;;;;;;6.20;1.93;;;19.90;68.00;;;;;;5039310;28;20901;-61
2023/05/18 12:02:21;;;;;;;3.20;1.80;;;19.80;67.10;;;;;;5039701;28;20734;-61
2023/05/18 12:04:50;;;;;;;1.70;1.20;;;20.00;64.80;;;;;;5039867;28;20463;-62
2023/05/18 12:07:25;;;;;;;5.97;1.77;;;;;;;;;;5039392;28;20480;-62
2023/05/18 12:09:52;;;;;;;2.77;1.67;;;;;;;;;;5038967;28;20447;-61
2023/05/18 12:12:21;;;;;;;5.90;2.13;;;;;;;;;;5039049;28;20555;-60
2023/05/18 12:14:54;;;;;;;3.97;1.80;;;19.90;67.50;;;;;;5038879;28;20519;-60
2023/05/18 12:17:23;;;;;;;4.00;1.83;;;;;;;;;;5039857;28;20428;-61
2023/05/18 12:19:50;;;;;;;2.03;1.77;;;;;;;;;;5039318;28;20478;-60
2023/05/18 12:22:17;;;;;;;2.03;1.47;;;;;;;;;;5038864;28;20475;-61
2023/05/18 12:24:46;;;;;;;7.60;2.37;;;20.00;65.60;;;;;;5039036;28;20483;-62
2023/05/18 12:27:13;;;;;;;5.60;2.40;;;;;;;;;;5039260;28;20459;-61
2023/05/18 12:29:41;;;;;;;3.83;1.97;;;19.70;65.70;;;;;;5038397;28;20545;-62
2023/05/18 12:32:10;;;;;;;3.10;1.47;;;19.70;67.80;;;;;;5038915;28;20444;-61
2023/05/18 12:34:39;;;;;;;2.60;1.70;;;;;;;;;;5038966;28;20467;-58
2023/05/18 12:37:07;;;;;;;3.47;1.40;;;;;;;;;;5051236;28;20487;-57
2023/05/18 12:39:35;;;;;;;5.50;1.40;;;;;;;;;;5041313;28;20452;-61
2023/05/18 12:42:11;;;;;;;4.00;2.20;;;19.70;63.60;;;;;;5046371;28;20480;-60
2023/05/18 12:44:38;;;;;;;10.47;1.90;;;;;;;;;;5048003;28;20436;-59
2023/05/18 12:47:07;;;;;;;3.80;2.00;;;19.30;67.90;;;;;;5040588;28;20482;-62
2023/05/18 12:49:38;;;;;;;3.23;1.87;;;19.00;60.40;;;;;;5038366;28;20517;-62
2023/05/18 12:52:10;;;;;;;5.33;2.13;;;18.90;59.80;;;;;;5037974;28;20487;-61
2023/05/18 12:54:38;;;;;;;2.30;1.40;;;;;;;;;;5038435;28;20493;-62
2023/05/18 12:57:08;;;;;;;6.37;1.97;;;19.20;67.60;;;;;;5049469;28;20451;-60
2023/05/18 12:59:48;;;;;;;3.73;2.00;;;19.50;66.80;;;;;;5046948;28;20478;-61
2023/05/18 13:02:28;;;;;;;5.70;2.13;;;19.70;67.50;;;;;;5051115;28;20443;-61
2023/05/18 13:05:03;;;;;;;1.70;1.43;;;;;;;;;;5042800;28;20468;-61
2023/05/18 13:07:30;;;;;;;1.63;1.40;;;;;;;;;;5047944;28;20447;-60
2023/05/18 13:10:01;;;;;;;4.07;1.87;;;19.70;67.10;;;;;;5041972;28;20487;-59
2023/05/18 13:12:47;;;;;;;6.50;1.63;;;19.90;66.40;;;;;;5046281;28;20447;-58
2023/05/18 13:15:17;;;;;;;9.70;1.97;;;18.30;65.10;;;;;;5055023;28;20436;-64
2023/05/18 13:17:58;;;;;;;4.83;1.90;;;19.90;58.90;;;;;;5055623;28;20436;-61
2023/05/18 13:20:34;;;;;;;6.70;1.73;;;19.80;65.20;;;;;;5054636;28;20487;-59
2023/05/18 13:23:03;;;;;;;2.30;1.40;;;20.10;65.20;;;;;;5054843;28;20459;-62
2023/05/18 13:25:31;;;;;;;1.90;1.70;;;20.20;64.70;;;;;;5049880;28;20463;-62
2023/05/18 13:27:58;;;;;;;8.20;1.73;;;;;;;;;;5051144;28;20522;-59
2023/05/18 13:30:27;;;;;;;3.97;1.20;;;20.30;65.60;;;;;;5053586;28;20468;-59
2023/05/18 13:32:54;;;;;;;4.40;1.43;;;;;;;;;;5045538;28;20472;-61
2023/05/18 13:35:22;;;;;;;5.00;2.17;;;20.10;65.90;;;;;;5038955;28;20491;-62
2023/05/18 13:37:50;;;;;;;3.37;1.63;;;;;;;;;;5039957;28;20468;-57
2023/05/18 13:40:19;;;;;;;2.40;1.67;;;19.80;67.20;;;;;;5049511;28;20452;-61
2023/05/18 13:42:46;;;;;;;7.57;2.80;;;;;;;;;;5042782;28;20444;-61
2023/05/18 13:45:14;;;;;;;3.83;1.63;;;19.80;66.90;;;;;;5049671;28;20503;-58
2023/05/18 13:47:44;;;;;;;3.90;2.00;;;19.80;66.30;;;;;;5047143;28;20479;-62
2023/05/18 13:50:11;;;;;;;2.37;1.60;;;;;;;;;;5041027;28;20553;-62
2023/05/18 13:52:38;;;;;;;2.93;1.70;;;;;;;;;;5039410;28;20527;-61
2023/05/18 13:55:07;;;;;;;4.30;2.00;;;19.60;64.10;;;;;;5040182;28;20503;-62
2023/05/18 13:57:36;;;;;;;6.53;2.10;;;;;;;;;;5042263;28;20444;-61
2023/05/18 14:00:11;;;;;;;7.20;2.50;;;19.60;64.60;;;;;;5043005;28;20448;-61
2023/05/18 14:02:39;;;;;;;6.87;2.27;;;;;;;;;;5053240;28;20474;-60